Terminal Aerodrome Forecast
Issued by NWS Sioux Falls, SD

Home | Current Version | Previous Version | Text Only | Print | Product List | Glossary Off
Versions: 1 2 3 4 5 6 7 8 9 10 11 12 13

000
FTUS43 KFSD 081700
TAFFSD
TAF
KFSD 081735Z 0818/0918 32016G26KT P6SM BKN050
     FM082300 35010KT P6SM SCT045
     FM090200 VRB04KT P6SM SKC
     FM091500 28008KT P6SM SKC=

USA.gov is the U.S. government's official web portal to all federal, state and local government web resources and services.